HMD weather

Milenio Diario Antes Novedades Editores Heliport
Cuauhtémoc, Distrito Federal, Mexico

Public forecast

Using degrees Celsius for public forecast. Weather courtesy of forecast.io.

Closest aviation weather report (METAR) to Milenio Diario Antes Novedades Editores Heliport

Closest report is Licenciado Benito Juarez International Airport, 4.3 nm (8.0 km) E. Retrieved 2019/10/22 01:44 UTC (21 minutes ago):

MMMX 220144Z 36006KT 10SM FEW020 SCT080 20/11 A3029 NOSIG RMK 8/430 ISOL CI

Closest aviation forecast (TAF) to Milenio Diario Antes Novedades Editores Heliport

Closest forecast is Licenciado Benito Juarez International Airport, 4.3 nm (8.0 km) E. Retrieved 2019-10-22 00:15 UTC (2 hours ago):

TAF MMMX 212308Z 2200/2306 12010KT P6SM BKN020CB BKN080 OVC200 TX25/2221Z TN14/2212Z TEMPO 2200/2204 VC RA FM220400 12005KT P6SM SCT020 BKN200 FM220600 15005KT P6SM SCT200 FM221800 04010KT P6SM SCT030 FM222100 04010G20KT P6SM BKN025 BKN080 TEMPO 2222/2302 5SM RA